MMTJ/TIJ METAR and TAF weather

Enter ICAO airport designator
Station Type Date Time Source
MMTJ METAR 2019/02/17 14:45 UTC NOAA

MMTJ 171445Z 30007KT 10SM BKN030 10/07 A3011 RMK SLP198 54000 972 8/400


Station Type Date Time Source
MMTJ Decoded METAR 2019/02/17 14:45 UTC NOAA

Tijuana International Airport , Mexico (MMTJ) 32-33N 116-58W
Feb 17, 2019 - 09:45 AM EST / 2019.02.17 1445 UTC
Wind: from the WNW (300 degrees) at 8 MPH (7 KT):0
Visibility: 10 mile(s):0
Sky conditions: mostly cloudy
Temperature: 50 F (10 C)
Dew Point: 44 F (7 C)
Relative Humidity: 81%
Pressure (altimeter): 30.11 in. Hg (1019 hPa)
Pressure tendency: the same as three hours ago
ob: MMTJ 171445Z 30007KT 10SM BKN030 10/07 A3011 RMK SLP198 54000 972 8/400
cycle: 15

Station Type Date Time Source
MMTJ TAF 2019/02/17 12:24 UTC NOAA

TAF MMTJ 171017Z 1712/1818 33004KT P6SM BKN025 TX13/1721Z TN10/1712Z
TEMPO 1714/1718 6SM -RA
FM172100 27012KT 4SM RA BKN020 OVC070 PROB40 1802/1806 3SM TSRA BKN015CB
FM181000 33015KT 5SM -RA BKN025 OVC090


Example: see airport list